Flight Track Log - Related Links

Times and Time Zones

All times are in EDT time to prevent confusion due to time zone crossing. See the SWA1254 flight status page for this flight to view local times or setup timezone preferences in your user account.

Time Position Orientation Groundspeed Altitude Reporting Facility
EDT Latitude Longitude Course Direction KTS MPH feet Rate Location/Type
Sun 07:50:24 PM 42.9500 -78.7167 56° Northeast 161 185 1,600  Level Buffalo TRACON
Sun 07:51:00 PM 42.9667 -78.6833 56° Northeast 171 197 2,600 2,376 Climbing Buffalo TRACON
Sun 07:52:05 PM 42.9522 -78.6131 106° East 254 292 5,600 3,071 Climbing Cleveland Center
Sun 07:53:07 PM 42.8711 -78.6558 201° Southwest 304 350 9,100 2,661 Climbing Cleveland Center
Sun 07:54:09 PM 42.7894 -78.7139 208° Southwest 340 391 11,100 2,565 Climbing Cleveland Center
Sun 07:55:11 PM 42.6917 -78.7806 207° Southwest 389 448 14,400 3,000 Climbing Cleveland Center
Sun 07:56:13 PM 42.5922 -78.8483 207° Southwest 399 459 17,300 2,683 Climbing Cleveland Center
Sun 07:57:14 PM 42.4878 -78.9186 206° Southwest 415 478 19,900 2,683 Climbing Cleveland Center
Sun 07:58:16 PM 42.3667 -78.9978 206° Southwest 432 497 22,800 2,400 Climbing Cleveland Center
Sun 07:59:19 PM 42.2481 -79.0372 194° South 441 507 24,900 1,968 Climbing Cleveland Center
Sun 08:00:21 PM 42.1253 -79.0783 194° South 454 522 26,900 1,984 Climbing Cleveland Center
Sun 08:01:23 PM 41.9767 -79.1289 194° South 458 527 29,000 1,645 Climbing Cleveland Center
Sun 08:02:25 PM 41.8631 -79.1672 194° South 471 542 30,300 1,500 Climbing Cleveland Center
Sun 08:03:27 PM 41.7358 -79.2094 194° South 472 543 32,100 1,694 Climbing Cleveland Center
Sun 08:04:29 PM 41.6003 -79.2569 195° South 468 539 33,800 1,258 Climbing Cleveland Center
Sun 08:05:31 PM 41.4767 -79.2983 194° South 462 532 34,700 927 Climbing Cleveland Center
Sun 08:06:32 PM 41.3489 -79.3397 194° South 469 540 35,700 1,220 Climbing Cleveland Center
Sun 08:07:34 PM 41.1956 -79.3908 194° South 475 547 37,200 1,113 Climbing Cleveland Center
Sun 08:08:36 PM 41.0717 -79.4319 194° South 463 533 38,000 387 Climbing Cleveland Center
Sun 08:09:38 PM 40.9481 -79.4719 194° South 455 524 38,000  Level Cleveland Center
Sun 08:10:40 PM 40.8253 -79.5122 194° South 455 524 38,000  Level Cleveland Center
Sun 08:11:42 PM 40.7028 -79.5522 194° South 454 522 38,000  Level Cleveland Center
Sun 08:12:44 PM 40.5803 -79.5906 193° South 453 521 38,000  Level Cleveland Center
Sun 08:13:46 PM 40.4581 -79.6297 194° South 450 518 38,000  Level Cleveland Center
Sun 08:14:47 PM 40.3344 -79.6708 194° South 451 519 38,000  Level Cleveland Center
Sun 08:15:49 PM 40.1853 -79.7181 194° South 451 519 38,000  Level Cleveland Center
Sun 08:16:51 PM 40.0622 -79.7572 194° South 452 520 38,000  Level Cleveland Center
Sun 08:17:53 PM 39.9386 -79.7981 194° South 454 522 38,000  Level Cleveland Center
Sun 08:18:55 PM 39.8156 -79.8361 193° South 455 524 38,000  Level Cleveland Center
Sun 08:19:57 PM 39.6906 -79.8758 194° South 458 527 38,000  Level Cleveland Center
Sun 08:20:59 PM 39.5656 -79.9142 193° South 459 528 38,000  Level Cleveland Center
Sun 08:22:01 PM 39.4397 -79.9542 194° South 461 531 38,000  Level Cleveland Center
Sun 08:23:03 PM 39.2881 -80.0000 193° South 463 533 38,000  Level Cleveland Center
Sun 08:24:05 PM 39.1611 -80.0411 194° South 467 537 38,000  Level Cleveland Center
Sun 08:25:07 PM 39.0350 -80.0806 194° South 467 537 38,000  Level Cleveland Center
Sun 08:26:09 PM 38.9053 -80.0956 185° South 467 537 38,000  Level Cleveland Center
Sun 08:27:11 PM 38.7775 -80.1375 194° South 479 551 38,000  Level Washington Center
Sun 08:28:13 PM 38.6569 -80.1833 197° South 468 539 38,000  Level Washington Center
Sun 08:29:11 PM 38.5319 -80.2286 196° South 468 539 38,000  Level Washington Center
Sun 08:30:11 PM 38.3969 -80.2731 194° South 461 531 38,000  Level Washington Center
Sun 08:31:13 PM 38.2722 -80.3156 195° South 461 531 38,000  Level Washington Center
Sun 08:32:13 PM 38.1517 -80.3581 195° South 461 531 38,000  Level Washington Center
Sun 08:33:11 PM 38.0269 -80.4003 195° South 461 531 38,000  Level Washington Center
Sun 08:34:11 PM 37.9125 -80.4403 195° South 466 536 38,000  Level Washington Center
Sun 08:35:12 PM 37.7878 -80.4822 195° South 466 536 38,000  Level Washington Center
Sun 08:37:04 PM 37.5353 -80.5664 195° South 468 539 38,000  Level Atlanta Center
Sun 08:38:04 PM 37.4258 -80.6025 195° South 468 539 38,000  Level Atlanta Center
Sun 08:39:04 PM 37.3019 -80.6447 195° South 468 539 38,000  Level Atlanta Center
Sun 08:40:04 PM 37.1781 -80.6864 195° South 468 539 38,000  Level Atlanta Center
Sun 08:41:04 PM 37.0394 -80.7208 191° South 468 539 38,000  Level Atlanta Center
Sun 08:42:04 PM 36.9106 -80.7342 185° South 468 539 38,000  Level Atlanta Center
Sun 08:43:04 PM 36.7794 -80.7472 185° South 468 539 38,000  Level Atlanta Center
Sun 08:44:04 PM 36.6714 -80.7569 184° South 456 525 38,000  Level Atlanta Center
Sun 08:45:04 PM 36.5444 -80.7700 185° South 457 526 38,000  Level Atlanta Center
Sun 08:46:04 PM 36.4114 -80.7856 185° South 467 537 38,000  Level Atlanta Center
Sun 08:47:04 PM 36.2825 -80.8011 186° South 472 543 38,000  Level Atlanta Center
Sun 08:48:04 PM 36.1494 -80.8142 185° South 477 549 38,000  Level Atlanta Center
Sun 08:49:04 PM 36.0183 -80.8297 185° South 477 549 38,000  Level Atlanta Center
Sun 08:50:04 PM 35.8872 -80.8425 185° South 477 549 38,000  Level Atlanta Center
Sun 08:51:04 PM 35.7417 -80.8586 185° South 482 555 38,000  Level Atlanta Center
Sun 08:52:04 PM 35.6022 -80.8717 184° South 482 555 38,000  Level Atlanta Center
Sun 08:53:04 PM 35.4692 -80.8869 185° South 482 555 38,000  Level Atlanta Center
Sun 08:54:04 PM 35.3339 -80.9022 185° South 482 555 38,000  Level Atlanta Center
Sun 08:55:04 PM 35.1986 -80.9150 184° South 489 563 38,000  Level Atlanta Center
Sun 08:56:04 PM 35.0633 -80.9303 185° South 489 563 38,000  Level Atlanta Center
Sun 08:57:04 PM 34.9281 -80.9456 185° South 494 568 38,000  Level Atlanta Center
Sun 09:00:47 PM 34.4314 -80.9969 185° South 499 574 38,000  Level Jacksonville Center
Sun 09:01:47 PM 34.2939 -81.0125 185° South 494 568 38,000  Level Jacksonville Center
Sun 09:02:47 PM 34.1481 -81.0258 184° South 489 563 38,000  Level Jacksonville Center
Sun 09:03:00 PM 34.1494 -81.0247 184° South  Level FlightAware Approximate
Sun 09:03:47 PM 34.0147 -81.0386 185° South 483 556 38,000  Level Jacksonville Center
Sun 09:04:47 PM 33.8814 -81.0514 185° South 483 556 38,000  Level Jacksonville Center
Sun 09:05:47 PM 33.7731 -81.0611 184° South 483 556 38,000 -50 Level Jacksonville Center
Sun 09:06:47 PM 33.6231 -81.0767 185° South 489 563 37,900 -550 Descending Jacksonville Center
Sun 09:07:47 PM 33.4875 -81.0869 184° South 489 563 36,900 -1,100 Descending Jacksonville Center
Sun 09:08:47 PM 33.3519 -81.0972 184° South 489 563 35,700 -1,050 Descending Jacksonville Center
Sun 09:09:47 PM 33.2186 -81.1147 186° South 489 563 34,800 -850 Descending Jacksonville Center
Sun 09:10:47 PM 33.0831 -81.1250 184° South 489 563 34,000 -400 Descending Jacksonville Center
Sun 09:11:47 PM 32.9414 -81.1328 183° South 500 575 34,000  Level Jacksonville Center
Sun 09:12:47 PM 32.8017 -81.1453 184° South 500 575 34,000  Level Jacksonville Center
Sun 09:13:46 PM 32.6661 -81.1578 184° South 494 568 34,000  Level Jacksonville Center
Sun 09:14:47 PM 32.5139 -81.1706 184° South 499 574 34,000  Level Jacksonville Center
Sun 09:15:46 PM 32.3950 -81.1800 184° South 488 562 34,000  Level Jacksonville Center
Sun 09:16:47 PM 32.2636 -81.1900 184° South 482 555 34,000  Level Jacksonville Center
Sun 09:17:46 PM 32.1322 -81.1997 184° South 477 549 34,000  Level Jacksonville Center
Sun 09:18:47 PM 32.0028 -81.1947 178° South 477 549 34,000  Level Jacksonville Center
Sun 09:19:47 PM 31.8753 -81.1922 179° South 471 542 34,000 -504 Level Jacksonville Center
Sun 09:20:46 PM 31.7353 -81.1875 178° South 460 529 33,000 -1,311 Descending Jacksonville Center
Sun 09:21:46 PM 31.6017 -81.1828 178° South 473 544 31,400 -1,339 Descending Jacksonville Center
Sun 09:22:47 PM 31.4764 -81.1800 179° South 487 560 30,300 -694 Descending Jacksonville Center
Sun 09:23:47 PM 31.3219 -81.1756 179° South 499 574 30,000 -150 Descending Jacksonville Center
Sun 09:24:47 PM 31.1819 -81.1708 178° South 499 574 30,000  Level Jacksonville Center
Sun 09:25:46 PM 31.0461 -81.1661 178° South 499 574 30,000  Level Jacksonville Center
Sun 09:26:47 PM 30.9061 -81.1614 178° South 499 574 30,000  Level Jacksonville Center
Sun 09:27:47 PM 30.7683 -81.1592 179° South 499 574 30,000 -200 Level Jacksonville Center
Sun 09:28:47 PM 30.6347 -81.1542 178° South 494 568 29,600 -700 Descending Jacksonville Center
Sun 09:29:47 PM 30.4967 -81.1494 178° South 494 568 28,600 -1,050 Descending Jacksonville Center
Sun 09:30:47 PM 30.3611 -81.1447 178° South 494 568 27,500 -1,050 Descending Jacksonville Center
Sun 09:31:47 PM 30.2336 -81.1422 179° South 478 550 26,500 -1,000 Descending Jacksonville Center
Sun 09:32:47 PM 30.1061 -81.1397 179° South 467 537 25,500 -1,000 Descending Jacksonville Center
Sun 09:33:47 PM 29.9808 -81.1350 178° South 460 529 24,500 -750 Descending Jacksonville Center
Sun 09:34:47 PM 29.8703 -81.1322 179° South 455 524 24,000 -650 Descending Jacksonville Center
Sun 09:35:47 PM 29.7469 -81.1272 178° South 450 518 23,200 -900 Descending Jacksonville Center
Sun 09:36:47 PM 29.6258 -81.1244 179° South 440 506 22,200 -1,100 Descending Jacksonville Center
Sun 09:37:47 PM 29.5069 -81.1244 180° South 434 499 21,000 -1,815 Descending Jacksonville Center
Sun 09:38:46 PM 29.3814 -81.1147 176° South 417 480 18,600 -2,218 Descending Jacksonville Center
Sun 09:39:46 PM 29.2667 -81.1097 178° South 417 480 16,600 -2,033 Descending Jacksonville Center
Sun 09:40:47 PM 29.1581 -81.1022 177° South 402 463 14,500 -2,100 Descending Jacksonville Center
Sun 09:41:46 PM 29.0494 -81.0922 175° South 395 455 12,400 -1,300 Descending Jacksonville Center
Sun 09:42:47 PM 28.9469 -81.0775 173° South 385 443 11,900 -524 Descending Jacksonville Center
Sun 09:43:29 PM 28.8667 -81.0667 173° South 363 418 11,500 -833 Descending Orlando TRACON
Sun 09:44:35 PM 28.7667 -81.1000 196° South 348 400 10,400 -1,050 Descending Orlando TRACON
Sun 09:45:29 PM 28.6833 -81.1167 190° South 317 365 9,400 -905 Descending Orlando TRACON
Sun 09:46:41 PM 28.5833 -81.1333 188° South 314 361 8,500 -1,091 Descending Orlando TRACON
Sun 09:47:41 PM 28.5000 -81.1667 199° South 314 361 7,000 -1,376 Descending Orlando TRACON
Sun 09:48:30 PM 28.4333 -81.1833 192° South 305 351 6,000 -699 Descending Orlando TRACON
Sun 09:49:24 PM 28.3667 -81.1833 180° South 261 300 5,800 -842 Descending Orlando TRACON
Sun 09:50:24 PM 28.3000 -81.1833 180° South 257 296 4,400 -1,450 Descending Orlando TRACON
Sun 09:51:24 PM 28.2500 -81.2333 221° Southwest 209 241 2,900 -1,200 Descending Orlando TRACON
Sun 09:52:24 PM 28.2667 -81.2667 300° West 180 207 2,000 -450 Descending Orlando TRACON
Sun 09:53:24 PM 28.3167 -81.2833 344° North 157 181 2,000 -300 Level Orlando TRACON
Sun 09:54:24 PM 28.3500 -81.2833 360° North 130 150 1,400 -700 Descending Orlando TRACON
Sun 09:55:24 PM 28.3833 -81.2833 360° North 138 159 600 -800 Descending Orlando TRACON
Sun 09:57:00 PM 28.4167 -81.3000 336° Northwest  Level FlightAware Approximate
Sun 10:04:00 PM 28.4294 -81.3090 336° Northwest  Level Estimated
Sun 10:05:00 PM 28.4294 -81.3090 336° Northwest  Level Estimated
Sun 10:06:00 PM 28.4294 -81.3090 336° Northwest  Level Estimated
Sun 10:07:00 PM 28.4294 -81.3090 336° Northwest  Level Estimated

Login

Don't have an account? Register now (free) for customized features, flight alerts, and more!